Time;durP1;ratioP1;P1;durP2;ratioP2;P2;SDS_P1;SDS_P2;PMS_P1;PMS_P2;Temp;Humidity;BMP_temperature;BMP_pressure;BME280_temperature;BME280_humidity;BME280_pressure;Samples;Min_cycle;Max_cycle;Signal;HPM_P1;HPM_P2
2022/11/30 00:00:26;;;;;;;32.83;17.80;;;;;;;;;;5052262;28;20049;-69
2022/11/30 00:02:53;;;;;;;31.23;18.63;;;;;;;;;;5052184;28;20041;-69
2022/11/30 00:05:21;;;;;;;31.58;18.38;;;;;;;;;;5052007;28;20100;-69
2022/11/30 00:07:48;;;;;;;31.45;18.25;;;;;;;;;;5050843;28;20138;-69
2022/11/30 00:10:14;;;;;;;29.87;17.57;;;;;;;;;;5052170;28;20124;-69
2022/11/30 00:12:42;;;;;;;31.80;18.83;;;;;;;;;;5052034;28;20045;-69
2022/11/30 00:15:12;;;;;;;33.05;20.00;;;;;;;;;;5052075;28;20041;-69
2022/11/30 00:17:39;;;;;;;30.02;18.55;;;;;;;;;;5050033;28;20049;-69
2022/11/30 00:20:06;;;;;;;32.83;19.40;;;;;;;;;;5047460;28;20053;-69
2022/11/30 00:22:32;;;;;;;32.95;19.40;;;;;;;;;;5050178;28;20382;-68
2022/11/30 00:25:01;;;;;;;32.72;20.15;;;;;;;;;;5050557;28;20420;-69
2022/11/30 00:27:28;;;;;;;36.35;20.55;;;;;;;;;;5051743;28;20425;-69
2022/11/30 00:29:55;;;;;;;39.17;20.90;;;;;;;;;;5051616;28;20048;-69
2022/11/30 00:32:21;;;;;;;34.35;21.02;;;;;;;;;;5051486;28;20059;-68
2022/11/30 00:34:47;;;;;;;32.38;19.45;;;;;;;;;;5051443;28;20045;-68
2022/11/30 00:37:14;;;;;;;34.13;20.55;;;;;;;;;;5051440;28;20060;-68
2022/11/30 00:39:40;;;;;;;36.90;21.70;;;;;;;;;;5051709;28;20391;-68
2022/11/30 00:42:07;;;;;;;37.40;21.55;;;;;;;;;;5051442;28;20041;-68
2022/11/30 00:44:33;;;;;;;38.88;22.67;;;;;;;;;;5051586;28;20127;-69
2022/11/30 00:47:00;;;;;;;39.75;22.65;;;;;;;;;;5051371;28;20493;-69
2022/11/30 00:49:26;;;;;;;40.75;22.92;;;;;;;;;;5051374;28;20053;-69
2022/11/30 00:51:52;;;;;;;41.33;24.33;;;;;;;;;;5051646;28;20420;-68
2022/11/30 00:54:19;;;;;;;40.00;22.83;;;;;;;;;;5051108;28;20438;-69
2022/11/30 00:56:45;;;;;;;40.25;23.88;;;;;;;;;;5051636;28;20051;-68
2022/11/30 00:59:11;;;;;;;39.80;23.30;;;;;;;;;;5051640;28;20041;-68
2022/11/30 01:01:38;;;;;;;38.97;23.73;;;;;;;;;;5051341;28;20045;-69
2022/11/30 01:04:04;;;;;;;41.67;24.73;;;;;;;;;;5051205;28;20398;-69
2022/11/30 01:06:31;;;;;;;44.10;24.20;;;;;;;;;;5051166;28;20055;-68
2022/11/30 01:08:57;;;;;;;42.58;25.23;;;;;;;;;;5051421;28;20052;-68
2022/11/30 01:11:25;;;;;;;44.83;23.65;;;;;;;;;;5051271;28;20045;-68
2022/11/30 01:13:52;;;;;;;48.47;24.67;;;;;;;;;;5051251;28;20051;-68
2022/11/30 01:16:20;;;;;;;45.10;24.80;;;;;;;;;;5051393;28;20060;-68
2022/11/30 01:18:47;;;;;;;46.13;25.52;;;;;;;;;;5051151;28;20110;-68
2022/11/30 01:21:15;;;;;;;46.00;25.10;;;;;;;;;;5051036;28;20053;-68
2022/11/30 01:23:42;;;;;;;46.70;25.60;;;;;;;;;;5051441;28;20055;-68
2022/11/30 01:26:09;;;;;;;46.58;24.80;;;;;;;;;;5051195;28;20053;-68
2022/11/30 01:28:35;;;;;;;47.63;25.07;;;;;;;;;;5051035;28;20063;-68
2022/11/30 01:31:03;;;;;;;42.85;24.33;;;;;;;;;;5051070;28;20056;-69
2022/11/30 01:33:29;;;;;;;41.35;23.25;;;;;;;;;;5051157;28;20140;-68
2022/11/30 01:35:59;;;;;;;44.75;25.50;;;;;;;;;;5054169;28;20506;-68
2022/11/30 01:38:29;;;;;;;48.58;25.20;;;;;;;;;;5053602;28;20044;-69
2022/11/30 01:40:56;;;;;;;44.97;24.25;;;;;;;;;;5054696;28;20493;-68
2022/11/30 01:43:35;;;;;;;45.78;24.58;;;;;;;;;;5054676;28;20124;-68
2022/11/30 01:46:01;;;;;;;43.75;23.42;;;;;;;;;;5054788;28;20055;-68
2022/11/30 01:48:28;;;;;;;50.40;25.45;;;;;;;;;;5054813;28;20049;-68
2022/11/30 01:50:55;;;;;;;46.55;23.58;;;;;;;;;;5054641;28;20106;-68
2022/11/30 01:53:22;;;;;;;45.38;23.23;;;;;;;;;;5054434;28;20078;-68
2022/11/30 01:55:48;;;;;;;45.38;24.33;;;;;;;;;;5054521;28;20408;-68
2022/11/30 01:58:22;;;;;;;43.15;23.17;;;;;;;;;;5054545;28;20040;-68
2022/11/30 02:00:49;;;;;;;40.10;22.45;;;;;;;;;;5054339;28;20506;-68
2022/11/30 02:03:31;;;;;;;42.78;23.77;;;;;;;;;;5052877;28;20460;-69
2022/11/30 02:05:58;;;;;;;45.13;24.40;;;;;;;;;;5052905;28;20135;-68
2022/11/30 02:08:25;;;;;;;48.47;23.80;;;;;;;;;;5053962;28;20045;-68
2022/11/30 02:10:54;;;;;;;48.58;24.13;;;;;;;;;;5054134;28;20519;-68
2022/11/30 02:13:20;;;;;;;44.97;23.67;;;;;;;;;;5053896;28;20067;-68
2022/11/30 02:15:46;;;;;;;48.95;25.17;;;;;;;;;;5054366;28;20048;-68
2022/11/30 02:18:15;;;;;;;48.97;24.02;;;;;;;;;;5052986;28;20045;-69
2022/11/30 02:20:52;;;;;;;51.60;23.23;;;;;;;;;;5053817;28;20059;-68
2022/11/30 02:23:37;;;;;;;47.90;24.67;;;;;;;;;;5054016;28;20055;-68
2022/11/30 02:26:17;;;;;;;48.65;25.38;;;;;;;;;;5054246;28;20060;-69
2022/11/30 02:29:02;;;;;;;48.35;23.95;;;;;;;;;;5054175;28;20095;-69
2022/11/30 02:31:32;;;;;;;49.70;25.42;;;;;;;;;;5053849;28;20045;-69
2022/11/30 02:33:59;;;;;;;47.10;25.02;;;;;;;;;;5053884;28;20071;-68
2022/11/30 02:36:26;;;;;;;49.72;25.73;;;;;;;;;;5053919;28;20124;-68
2022/11/30 02:38:52;;;;;;;50.03;26.02;;;;;;;;;;5053703;28;20071;-68
2022/11/30 02:41:19;;;;;;;45.20;24.45;;;;;;;;;;5053588;28;20485;-68
2022/11/30 02:43:45;;;;;;;49.67;25.08;;;;;;;;;;5053745;28;20044;-68
2022/11/30 02:46:17;;;;;;;43.92;23.65;;;;;;;;;;5053101;28;20493;-68
2022/11/30 02:48:59;;;;;;;45.10;24.95;;;;;;;;;;5053379;28;20052;-68
2022/11/30 02:51:27;;;;;;;46.88;24.50;;;;;;;;;;5053553;28;20049;-69
2022/11/30 02:53:53;;;;;;;44.47;24.90;;;;;;;;;;5053350;28;20055;-68
2022/11/30 02:56:21;;;;;;;46.65;25.30;;;;;;;;;;5053307;28;20044;-69
2022/11/30 02:58:47;;;;;;;47.73;24.00;;;;;;;;;;5053528;28;20044;-69
2022/11/30 03:01:14;;;;;;;46.72;24.58;;;;;;;;;;5053398;28;20619;-69
2022/11/30 03:03:41;;;;;;;44.17;23.52;;;;;;;;;;5053288;28;20064;-69
2022/11/30 03:06:07;;;;;;;45.75;22.95;;;;;;;;;;5053389;28;20055;-68
2022/11/30 03:08:33;;;;;;;42.28;22.65;;;;;;;;;;5053149;28;20045;-69
2022/11/30 03:11:00;;;;;;;42.53;23.48;;;;;;;;;;5053175;28;20403;-68
2022/11/30 03:13:27;;;;;;;43.63;23.13;;;;;;;;;;5053115;28;20052;-68
2022/11/30 03:15:53;;;;;;;41.13;22.15;;;;;;;;;;5053078;28;20075;-68
2022/11/30 03:18:19;;;;;;;46.10;21.85;;;;;;;;;;5053155;28;20090;-68
2022/11/30 03:20:46;;;;;;;43.30;21.90;;;;;;;;;;5052658;28;20044;-68
2022/11/30 03:23:12;;;;;;;42.58;22.73;;;;;;;;;;5052874;28;20052;-68
2022/11/30 03:25:38;;;;;;;44.38;22.95;;;;;;;;;;5052762;28;20057;-68
2022/11/30 03:28:05;;;;;;;41.60;22.55;;;;;;;;;;5052877;28;20045;-68
2022/11/30 03:30:31;;;;;;;44.28;22.42;;;;;;;;;;5051349;28;20592;-68
2022/11/30 03:32:57;;;;;;;43.80;22.77;;;;;;;;;;5052498;28;20408;-68
2022/11/30 03:35:24;;;;;;;44.83;22.40;;;;;;;;;;5052797;28;20080;-68
2022/11/30 03:37:50;;;;;;;44.60;23.88;;;;;;;;;;5052496;28;20061;-68
2022/11/30 03:40:17;;;;;;;46.20;22.80;;;;;;;;;;5052462;28;20041;-68
2022/11/30 03:42:43;;;;;;;45.72;24.00;;;;;;;;;;5052429;28;20056;-68
2022/11/30 03:45:10;;;;;;;49.03;23.33;;;;;;;;;;5051014;28;20045;-68
2022/11/30 03:47:36;;;;;;;47.50;23.80;;;;;;;;;;5052494;28;20071;-68
2022/11/30 03:50:03;;;;;;;48.40;24.17;;;;;;;;;;5052332;28;20082;-68
2022/11/30 03:52:29;;;;;;;45.60;23.45;;;;;;;;;;5052537;28;20053;-68
2022/11/30 03:54:56;;;;;;;44.13;21.80;;;;;;;;;;5052260;28;20049;-68
2022/11/30 03:57:22;;;;;;;46.35;22.75;;;;;;;;;;5052099;28;20051;-68
2022/11/30 03:59:48;;;;;;;43.28;21.33;;;;;;;;;;5051559;28;20049;-68
2022/11/30 04:02:15;;;;;;;43.17;22.23;;;;;;;;;;5051939;28;20051;-68
2022/11/30 04:04:41;;;;;;;46.78;23.25;;;;;;;;;;5051971;28;20056;-68
2022/11/30 04:07:07;;;;;;;43.47;23.35;;;;;;;;;;5051888;28;20063;-68
2022/11/30 04:09:34;;;;;;;47.72;22.42;;;;;;;;;;5052120;28;20048;-68
2022/11/30 04:12:00;;;;;;;46.28;23.48;;;;;;;;;;5052114;28;20058;-68
2022/11/30 04:14:27;;;;;;;42.47;22.80;;;;;;;;;;5051725;28;20052;-68
2022/11/30 04:16:53;;;;;;;45.92;22.02;;;;;;;;;;5051824;28;20053;-68
2022/11/30 04:19:19;;;;;;;39.55;20.50;;;;;;;;;;5051905;28;20370;-68
2022/11/30 04:21:46;;;;;;;45.33;21.08;;;;;;;;;;5051761;28;20056;-68
2022/11/30 04:24:12;;;;;;;45.00;22.52;;;;;;;;;;5051869;28;20075;-68
2022/11/30 04:26:38;;;;;;;44.33;22.15;;;;;;;;;;5051962;28;20416;-68
2022/11/30 04:29:05;;;;;;;42.63;21.17;;;;;;;;;;5051828;28;20049;-68
2022/11/30 04:31:31;;;;;;;44.58;22.33;;;;;;;;;;5051690;28;20055;-67
2022/11/30 04:33:58;;;;;;;43.33;21.02;;;;;;;;;;5051833;28;20404;-68
2022/11/30 04:36:24;;;;;;;41.00;21.63;;;;;;;;;;5051408;28;20509;-68
2022/11/30 04:38:50;;;;;;;40.47;21.40;;;;;;;;;;5051793;28;20049;-67
2022/11/30 04:41:17;;;;;;;40.78;20.20;;;;;;;;;;5051429;28;20063;-68
2022/11/30 04:43:43;;;;;;;41.08;20.65;;;;;;;;;;5051491;28;20052;-68
2022/11/30 04:46:10;;;;;;;39.63;19.95;;;;;;;;;;5051765;28;20059;-68
2022/11/30 04:48:36;;;;;;;43.03;20.65;;;;;;;;;;5051381;28;20500;-68
2022/11/30 04:51:04;;;;;;;39.08;19.73;;;;;;;;;;5051413;28;20049;-68
2022/11/30 04:53:31;;;;;;;42.40;20.17;;;;;;;;;;5051526;28;20045;-68
2022/11/30 04:55:58;;;;;;;40.30;20.30;;;;;;;;;;5051532;28;20055;-68
2022/11/30 04:58:24;;;;;;;39.47;20.80;;;;;;;;;;5051240;28;20412;-68
2022/11/30 05:00:53;;;;;;;37.85;18.95;;;;;;;;;;5051619;28;20060;-67
2022/11/30 05:03:19;;;;;;;38.20;18.75;;;;;;;;;;5051223;28;20049;-68
2022/11/30 05:05:45;;;;;;;43.85;20.48;;;;;;;;;;5051262;28;20049;-68
2022/11/30 05:08:12;;;;;;;35.75;19.33;;;;;;;;;;5051472;28;20049;-68
2022/11/30 05:10:38;;;;;;;39.35;19.05;;;;;;;;;;5054231;28;20409;-68
2022/11/30 05:13:04;;;;;;;41.03;20.77;;;;;;;;;;5055354;28;20049;-68
2022/11/30 05:15:31;;;;;;;38.17;19.95;;;;;;;;;;5055372;28;20057;-68
2022/11/30 05:17:59;;;;;;;40.90;20.35;;;;;;;;;;5055134;28;20047;-68
2022/11/30 05:20:26;;;;;;;42.60;21.85;;;;;;;;;;5054940;28;20056;-68
2022/11/30 05:22:52;;;;;;;40.13;20.77;;;;;;;;;;5055041;28;20041;-68
2022/11/30 05:25:18;;;;;;;41.35;21.83;;;;;;;;;;5055024;28;20063;-68
2022/11/30 05:27:45;;;;;;;44.15;21.40;;;;;;;;;;5055176;28;20052;-68
2022/11/30 05:30:11;;;;;;;41.95;21.13;;;;;;;;;;5054991;28;20057;-68
2022/11/30 05:32:38;;;;;;;40.67;22.08;;;;;;;;;;5054846;28;20055;-68
2022/11/30 05:35:04;;;;;;;40.20;21.77;;;;;;;;;;5055059;28;20045;-68
2022/11/30 05:37:31;;;;;;;40.10;22.17;;;;;;;;;;5054970;28;20218;-68
2022/11/30 05:39:57;;;;;;;42.15;21.50;;;;;;;;;;5054680;28;20052;-68
2022/11/30 05:42:23;;;;;;;42.00;22.23;;;;;;;;;;5055019;28;20049;-68
2022/11/30 05:44:50;;;;;;;40.70;22.02;;;;;;;;;;5054535;28;20493;-68
2022/11/30 05:47:16;;;;;;;38.88;21.90;;;;;;;;;;5054538;28;20531;-68
2022/11/30 05:49:43;;;;;;;41.30;22.13;;;;;;;;;;5054835;28;20057;-68
2022/11/30 05:52:09;;;;;;;40.03;22.38;;;;;;;;;;5054787;28;20041;-68
2022/11/30 05:54:35;;;;;;;39.53;21.30;;;;;;;;;;5054515;28;20048;-68
2022/11/30 05:57:02;;;;;;;36.38;20.92;;;;;;;;;;5054288;28;20045;-68
2022/11/30 05:59:28;;;;;;;42.72;21.70;;;;;;;;;;5054650;28;20131;-68
2022/11/30 06:01:55;;;;;;;40.17;21.60;;;;;;;;;;5054280;28;20040;-68
2022/11/30 06:04:21;;;;;;;41.20;22.33;;;;;;;;;;5054200;28;20501;-68
2022/11/30 06:06:48;;;;;;;38.95;21.85;;;;;;;;;;5054457;28;20056;-68
2022/11/30 06:09:15;;;;;;;38.85;20.90;;;;;;;;;;5054131;28;20488;-68
2022/11/30 06:11:41;;;;;;;37.20;21.60;;;;;;;;;;5054166;28;20610;-68
2022/11/30 06:14:07;;;;;;;36.80;20.27;;;;;;;;;;5054010;28;20045;-68
2022/11/30 06:16:34;;;;;;;36.40;21.38;;;;;;;;;;5054175;28;20059;-68
2022/11/30 06:19:00;;;;;;;37.45;19.83;;;;;;;;;;5054374;28;20051;-68
2022/11/30 06:21:27;;;;;;;37.35;20.83;;;;;;;;;;5052774;28;20049;-68
2022/11/30 06:23:53;;;;;;;33.47;18.63;;;;;;;;;;5052814;28;20053;-68
2022/11/30 06:26:19;;;;;;;33.92;18.88;;;;;;;;;;5054117;28;20067;-68
2022/11/30 06:28:46;;;;;;;33.60;19.50;;;;;;;;;;5053900;28;20071;-68
2022/11/30 06:31:14;;;;;;;36.95;19.75;;;;;;;;;;5053972;28;20789;-68
2022/11/30 06:33:40;;;;;;;37.47;18.95;;;;;;;;;;5053693;28;20500;-68
2022/11/30 06:36:07;;;;;;;38.13;19.30;;;;;;;;;;5053525;28;20072;-68
2022/11/30 06:38:33;;;;;;;37.10;18.98;;;;;;;;;;5053941;28;20408;-68
2022/11/30 06:41:04;;;;;;;34.05;19.00;;;;;;;;;;5052317;28;20484;-68
2022/11/30 06:43:32;;;;;;;45.10;23.27;;;;;;;;;;5053455;28;20055;-68
2022/11/30 06:45:58;;;;;;;39.63;21.52;;;;;;;;;;5053767;28;20060;-68
2022/11/30 06:48:24;;;;;;;46.75;24.20;;;;;;;;;;5053671;28;20053;-68
2022/11/30 06:50:51;;;;;;;46.58;24.67;;;;;;;;;;5053604;28;20053;-68
2022/11/30 06:53:17;;;;;;;47.22;24.55;;;;;;;;;;5053435;28;20053;-68
2022/11/30 06:55:43;;;;;;;47.95;23.45;;;;;;;;;;5047401;28;20038;-67
2022/11/30 06:58:10;;;;;;;43.65;23.02;;;;;;;;;;5041015;28;20045;-67
2022/11/30 07:00:37;;;;;;;39.97;20.25;;;;;;;;;;5052696;28;20067;-67
2022/11/30 07:03:04;;;;;;;32.77;17.53;;;;;;;;;;5053428;28;20052;-68
2022/11/30 07:05:33;;;;;;;35.10;18.30;;;;;;;;;;5053033;28;20048;-68
2022/11/30 07:07:59;;;;;;;39.17;19.40;;;;;;;;;;5053264;28;20049;-68
2022/11/30 07:10:26;;;;;;;39.15;21.00;;;;;;;;;;5053054;28;20493;-68
2022/11/30 07:12:53;;;;;;;44.28;22.85;;;;;;;;;;5052852;28;20492;-68
2022/11/30 07:15:19;;;;;;;39.15;21.83;;;;;;;;;;5053081;28;20072;-68
2022/11/30 07:17:46;;;;;;;40.90;22.80;;;;;;;;;;5052817;28;20049;-68
2022/11/30 07:20:12;;;;;;;45.05;23.77;;;;;;;;;;5052604;28;20053;-68
2022/11/30 07:22:39;;;;;;;39.58;19.92;;;;;;;;;;5053031;28;20052;-68
2022/11/30 07:27:50;;;;;;;39.58;20.75;;;;;;;;;;5043556;28;20053;-67
2022/11/30 07:30:16;;;;;;;38.63;20.55;;;;;;;;;;5047934;28;20060;-68
2022/11/30 07:32:43;;;;;;;41.25;20.23;;;;;;;;;;5040310;28;20064;-67
2022/11/30 07:35:09;;;;;;;37.47;19.27;;;;;;;;;;5050166;28;20048;-70
2022/11/30 07:37:35;;;;;;;36.22;18.95;;;;;;;;;;5052812;28;20056;-68
2022/11/30 07:40:03;;;;;;;39.22;18.70;;;;;;;;;;5038446;28;20417;-68
2022/11/30 07:42:29;;;;;;;38.47;20.40;;;;;;;;;;5052741;28;20086;-67
2022/11/30 07:44:56;;;;;;;39.25;20.25;;;;;;;;;;5052444;28;20056;-67
2022/11/30 07:47:24;;;;;;;36.88;19.48;;;;;;;;;;5034347;28;20056;-68
2022/11/30 07:49:51;;;;;;;35.78;18.88;;;;;;;;;;5038060;28;20047;-67
2022/11/30 07:52:17;;;;;;;34.13;17.70;;;;;;;;;;5031979;28;20045;-68
2022/11/30 07:54:43;;;;;;;35.28;16.52;;;;;;;;;;5031866;28;20045;-68
2022/11/30 07:57:11;;;;;;;36.03;16.27;;;;;;;;;;5043778;28;20095;-67
2022/11/30 07:59:37;;;;;;;33.03;16.27;;;;;;;;;;5050921;28;20037;-67
2022/11/30 08:02:03;;;;;;;33.22;16.15;;;;;;;;;;5052275;28;20045;-67
2022/11/30 08:04:30;;;;;;;30.30;15.68;;;;;;;;;;5051529;28;20053;-67
2022/11/30 08:06:57;;;;;;;34.83;16.90;;;;;;;;;;5051222;28;20072;-67
2022/11/30 08:09:24;;;;;;;32.45;16.67;;;;;;;;;;5052159;28;20072;-67
2022/11/30 08:11:50;;;;;;;30.08;15.75;;;;;;;;;;5051949;28;20488;-67
2022/11/30 08:14:17;;;;;;;30.67;15.82;;;;;;;;;;5051762;28;20055;-67
2022/11/30 08:16:43;;;;;;;29.50;14.75;;;;;;;;;;5052085;28;20049;-67
2022/11/30 08:19:09;;;;;;;30.33;15.45;;;;;;;;;;5051833;28;20049;-67
2022/11/30 08:21:36;;;;;;;28.48;14.52;;;;;;;;;;5052003;28;20053;-67
2022/11/30 08:24:03;;;;;;;30.87;13.37;;;;;;;;;;5052066;28;20124;-67
2022/11/30 08:26:31;;;;;;;33.22;15.52;;;;;;;;;;5051945;28;20488;-67
2022/11/30 08:28:58;;;;;;;26.80;12.80;;;;;;;;;;5052039;28;20045;-67
2022/11/30 08:31:27;;;;;;;30.33;14.60;;;;;;;;;;5051909;28;20057;-67
2022/11/30 08:33:55;;;;;;;29.63;14.95;;;;;;;;;;5051562;28;20285;-67
2022/11/30 08:36:22;;;;;;;31.25;14.63;;;;;;;;;;5051753;28;20041;-67
2022/11/30 08:38:48;;;;;;;31.92;14.25;;;;;;;;;;5051831;28;20080;-67
2022/11/30 08:41:16;;;;;;;30.08;16.00;;;;;;;;;;5051627;28;20049;-67
2022/11/30 08:43:42;;;;;;;30.15;15.52;;;;;;;;;;5051540;28;20381;-67
2022/11/30 08:46:13;;;;;;;29.23;14.48;;;;;;;;;;5051530;28;20056;-67
2022/11/30 08:49:00;;;;;;;27.13;13.25;;;;;;;;;;5051769;28;20049;-67
2022/11/30 08:51:47;;;;;;;28.27;12.82;;;;;;;;;;5051418;28;20063;-67
2022/11/30 08:54:33;;;;;;;31.00;14.07;;;;;;;;;;5051698;28;20443;-67
2022/11/30 08:57:00;;;;;;;27.10;12.98;;;;;;;;;;5051207;28;20485;-67
2022/11/30 08:59:26;;;;;;;30.25;13.45;;;;;;;;;;5051687;28;20041;-67
2022/11/30 09:01:52;;;;;;;34.80;13.75;;;;;;;;;;5051490;28;20049;-67
2022/11/30 09:04:19;;;;;;;30.77;13.23;;;;;;;;;;5051575;28;20403;-67
2022/11/30 09:06:45;;;;;;;33.58;14.00;;;;;;;;;;5050291;28;20075;-67
2022/11/30 09:09:12;;;;;;;36.97;14.68;;;;;;;;;;5051529;28;20055;-67
2022/11/30 09:11:38;;;;;;;29.85;12.77;;;;;;;;;;5051218;28;20049;-67
2022/11/30 09:14:06;;;;;;;30.40;13.38;;;;;;;;;;5051320;28;20053;-67
2022/11/30 09:16:33;;;;;;;;;;;;;;;;;;5051782;28;20068;-67
2022/11/30 09:18:59;;;;;;;34.95;14.15;;;;;;;;;;5051477;28;19924;-67
2022/11/30 09:21:26;;;;;;;34.85;15.45;;;;;;;;;;5050978;28;20064;-67
2022/11/30 09:23:54;;;;;;;25.55;12.93;;;;;;;;;;5051185;28;20049;-67
2022/11/30 09:26:22;;;;;;;28.77;12.05;;;;;;;;;;5051334;28;20119;-67
2022/11/30 09:28:49;;;;;;;24.90;11.75;;;;;;;;;;5051122;28;20045;-67
2022/11/30 09:31:22;;;;;;;26.13;13.15;;;;;;;;;;5051030;28;20586;-67
2022/11/30 09:33:48;;;;;;;28.85;12.70;;;;;;;;;;5051064;28;20045;-67
2022/11/30 09:36:16;;;;;;;27.70;12.88;;;;;;;;;;5050812;28;20506;-67
2022/11/30 09:38:43;;;;;;;30.83;12.68;;;;;;;;;;5051321;28;20408;-67
2022/11/30 09:41:29;;;;;;;27.95;12.55;;;;;;;;;;5051232;28;20045;-67
2022/11/30 09:43:56;;;;;;;24.80;12.38;;;;;;;;;;5049786;28;20059;-67
2022/11/30 09:46:24;;;;;;;27.73;12.25;;;;;;;;;;5050924;28;20057;-67
2022/11/30 09:48:51;;;;;;;23.08;12.07;;;;;;;;;;5051219;28;20045;-67
2022/11/30 09:51:19;;;;;;;26.55;12.90;;;;;;;;;;5050927;28;20098;-67
2022/11/30 09:53:45;;;;;;;;;;;;;;;;;;5051648;28;20055;-67
2022/11/30 09:56:25;;;;;;;27.75;13.95;;;;;;;;;;5050153;28;19925;-67
2022/11/30 09:58:54;;;;;;;29.10;13.50;;;;;;;;;;5054759;28;20057;-67
2022/11/30 10:01:21;;;;;;;28.08;14.02;;;;;;;;;;5054410;28;20045;-67
2022/11/30 10:03:48;;;;;;;25.48;13.27;;;;;;;;;;5054186;28;20049;-67
2022/11/30 10:06:19;;;;;;;27.83;14.48;;;;;;;;;;5054486;28;20087;-67
2022/11/30 10:08:51;;;;;;;26.80;13.88;;;;;;;;;;5054192;28;20052;-67
2022/11/30 10:11:34;;;;;;;29.92;14.32;;;;;;;;;;5054297;28;20055;-67
2022/11/30 10:14:01;;;;;;;30.00;14.15;;;;;;;;;;5054012;28;20059;-67
2022/11/30 10:16:40;;;;;;;30.33;14.40;;;;;;;;;;5054347;28;20479;-67
2022/11/30 10:19:09;;;;;;;33.03;14.73;;;;;;;;;;5054115;28;20063;-67
2022/11/30 10:21:54;;;;;;;31.80;14.63;;;;;;;;;;5054128;28;20045;-67
2022/11/30 10:24:33;;;;;;;28.40;14.75;;;;;;;;;;5053887;28;20051;-67
2022/11/30 10:27:02;;;;;;;33.22;15.32;;;;;;;;;;5053918;28;20496;-67
2022/11/30 10:29:31;;;;;;;31.42;14.55;;;;;;;;;;5053752;28;20501;-67
2022/11/30 10:31:59;;;;;;;36.90;15.63;;;;;;;;;;5054129;28;20049;-67
2022/11/30 10:34:34;;;;;;;35.92;16.55;;;;;;;;;;5053766;28;20151;-67
2022/11/30 10:37:13;;;;;;;35.25;15.98;;;;;;;;;;5053568;28;20045;-67
2022/11/30 10:39:58;;;;;;;36.72;17.35;;;;;;;;;;5054195;28;20404;-67
2022/11/30 10:42:31;;;;;;;33.58;16.05;;;;;;;;;;5053613;28;20510;-67
2022/11/30 10:45:03;;;;;;;41.10;17.35;;;;;;;;;;5053543;28;20045;-67
2022/11/30 10:47:32;;;;;;;36.83;16.27;;;;;;;;;;5053532;28;20401;-67
2022/11/30 10:49:59;;;;;;;39.05;17.33;;;;;;;;;;5053727;28;20053;-67
2022/11/30 10:52:26;;;;;;;45.30;18.40;;;;;;;;;;5053447;28;20500;-67
2022/11/30 10:54:53;;;;;;;;;;;;;;;;;;5054030;28;20118;-67
2022/11/30 10:57:24;;;;;;;42.58;18.98;;;;;;;;;;5053374;28;19924;-67
2022/11/30 10:59:52;;;;;;;48.50;18.38;;;;;;;;;;5053503;28;20049;-67
2022/11/30 11:02:38;;;;;;;45.88;18.90;;;;;;;;;;5053311;28;20041;-67
2022/11/30 11:05:12;;;;;;;42.40;18.65;;;;;;;;;;5053494;28;20087;-67
2022/11/30 11:07:54;;;;;;;43.53;19.33;;;;;;;;;;5052749;28;20052;-67
2022/11/30 11:10:26;;;;;;;45.50;18.92;;;;;;;;;;5053006;28;20515;-67
2022/11/30 11:12:54;;;;;;;49.17;18.98;;;;;;;;;;5053173;28;20057;-67
2022/11/30 11:15:23;;;;;;;40.53;19.17;;;;;;;;;;5053235;28;20072;-67
2022/11/30 11:17:50;;;;;;;46.00;19.05;;;;;;;;;;5052772;28;20294;-67
2022/11/30 11:20:25;;;;;;;48.10;20.13;;;;;;;;;;5052918;28;20080;-67
2022/11/30 11:22:52;;;;;;;42.55;19.33;;;;;;;;;;5053023;28;20049;-67
2022/11/30 11:25:20;;;;;;;48.50;20.55;;;;;;;;;;5053090;28;20049;-67
2022/11/30 11:28:00;;;;;;;46.85;19.17;;;;;;;;;;5052696;28;20053;-67
2022/11/30 11:30:31;;;;;;;45.50;20.08;;;;;;;;;;5052697;28;20076;-67
2022/11/30 11:32:58;;;;;;;49.83;20.15;;;;;;;;;;5052579;28;20049;-67
2022/11/30 11:35:36;;;;;;;51.40;21.85;;;;;;;;;;5052587;28;20140;-67
2022/11/30 11:38:16;;;;;;;50.88;19.70;;;;;;;;;;5052457;28;20128;-67
2022/11/30 11:41:00;;;;;;;48.42;20.15;;;;;;;;;;5052863;28;20060;-67
2022/11/30 11:43:30;;;;;;;49.58;20.60;;;;;;;;;;5052324;28;20048;-67
2022/11/30 11:45:59;;;;;;;53.20;21.67;;;;;;;;;;5052682;28;20049;-67
2022/11/30 11:48:29;;;;;;;50.13;20.67;;;;;;;;;;5052276;28;20056;-67
2022/11/30 11:51:00;;;;;;;47.63;20.35;;;;;;;;;;5052422;28;20045;-67
2022/11/30 11:53:46;;;;;;;52.85;21.85;;;;;;;;;;5052243;28;20048;-67
2022/11/30 11:56:22;;;;;;;55.42;22.45;;;;;;;;;;5052093;28;20076;-67
2022/11/30 11:58:58;;;;;;;55.50;23.83;;;;;;;;;;5052416;28;20040;-67
2022/11/30 12:01:37;;;;;;;54.45;22.90;;;;;;;;;;5052117;28;20055;-67
2022/11/30 12:04:12;;;;;;;58.30;24.85;;;;;;;;;;5052306;28;20044;-67
2022/11/30 12:06:41;;;;;;;47.50;21.40;;;;;;;;;;5052528;28;20057;-67
2022/11/30 12:09:13;;;;;;;50.70;20.92;;;;;;;;;;5052175;28;20045;-67
2022/11/30 12:11:41;;;;;;;49.92;21.33;;;;;;;;;;5052146;28;20095;-67
2022/11/30 12:14:08;;;;;;;;;;;;;;;;;;5052319;28;20059;-67
2022/11/30 12:16:41;;;;;;;49.10;21.20;;;;;;;;;;5052134;28;19974;-67
2022/11/30 12:19:07;;;;;;;50.63;21.52;;;;;;;;;;5050865;28;20501;-67
2022/11/30 12:21:39;;;;;;;47.38;20.38;;;;;;;;;;5052141;28;20052;-67
2022/11/30 12:24:05;;;;;;;51.63;21.35;;;;;;;;;;5051799;28;20489;-68
2022/11/30 12:26:41;;;;;;;49.50;21.15;;;;;;;;;;5051837;28;20049;-67
2022/11/30 12:29:20;;;;;;;46.85;20.77;;;;;;;;;;5051724;28;20044;-68
2022/11/30 12:31:47;;;;;;;48.65;22.08;;;;;;;;;;5051896;28;20140;-68
2022/11/30 12:34:16;;;;;;;46.20;21.80;;;;;;;;;;5051831;28;20099;-67
2022/11/30 12:36:48;;;;;;;41.70;20.15;;;;;;;;;;5051683;28;20331;-67
2022/11/30 12:39:34;;;;;;;43.88;20.52;;;;;;;;;;5051868;28;20049;-69
2022/11/30 12:42:07;;;;;;;47.10;20.27;;;;;;;;;;5051310;28;20049;-70
2022/11/30 12:44:55;;;;;;;48.38;20.75;;;;;;;;;;5051852;28;20070;-69
2022/11/30 12:47:40;;;;;;;45.05;20.23;;;;;;;;;;5043623;28;20404;-69
2022/11/30 12:50:25;;;;;;;44.65;20.08;;;;;;;;;;5031070;28;20416;-69
2022/11/30 12:52:52;;;;;;;45.35;20.00;;;;;;;;;;5034059;28;20057;-69
2022/11/30 12:55:26;;;;;;;45.90;20.50;;;;;;;;;;5051358;28;20059;-69
2022/11/30 12:57:52;;;;;;;44.42;20.70;;;;;;;;;;5041011;28;20304;-68
2022/11/30 13:00:20;;;;;;;43.03;20.63;;;;;;;;;;5042340;28;20057;-68
2022/11/30 13:02:49;;;;;;;38.80;20.27;;;;;;;;;;5030488;28;20521;-68
2022/11/30 13:05:26;;;;;;;42.05;21.50;;;;;;;;;;5031364;28;20045;-67
2022/11/30 13:07:57;;;;;;;37.17;18.75;;;;;;;;;;5043361;28;20075;-67
2022/11/30 13:10:27;;;;;;;34.00;18.55;;;;;;;;;;5043904;28;20083;-67
2022/11/30 13:12:54;;;;;;;35.47;19.20;;;;;;;;;;5051180;28;20045;-67
2022/11/30 13:15:22;;;;;;;37.13;18.77;;;;;;;;;;5051467;28;20063;-67
2022/11/30 13:17:48;;;;;;;39.13;19.30;;;;;;;;;;5046328;28;20083;-67
2022/11/30 13:20:24;;;;;;;37.72;18.88;;;;;;;;;;5030477;28;20054;-67
2022/11/30 13:23:09;;;;;;;34.97;18.75;;;;;;;;;;5050343;28;20435;-67
2022/11/30 13:26:11;;;;;;;38.83;19.98;;;;;;;;;;5051286;28;20045;-67
2022/11/30 13:28:40;;;;;;;36.45;19.30;;;;;;;;;;5048601;28;20052;-67
2022/11/30 13:31:09;;;;;;;34.83;19.55;;;;;;;;;;5039575;28;20128;-67
2022/11/30 13:33:36;;;;;;;34.95;19.63;;;;;;;;;;5054831;28;20053;-67
2022/11/30 13:36:03;;;;;;;37.47;19.20;;;;;;;;;;5054767;28;20045;-67
2022/11/30 13:38:30;;;;;;;36.28;19.10;;;;;;;;;;5055008;28;20053;-67
2022/11/30 13:41:06;;;;;;;31.45;17.67;;;;;;;;;;5054705;28;20053;-67
2022/11/30 13:43:44;;;;;;;33.03;17.65;;;;;;;;;;5054964;28;20053;-67
2022/11/30 13:46:11;;;;;;;31.48;18.40;;;;;;;;;;5054646;28;20053;-67
2022/11/30 13:48:38;;;;;;;32.15;17.80;;;;;;;;;;5054585;28;20049;-67
2022/11/30 13:51:05;;;;;;;35.15;17.98;;;;;;;;;;5054860;28;20055;-67
2022/11/30 13:53:37;;;;;;;30.67;17.20;;;;;;;;;;5054776;28;20056;-67
2022/11/30 13:56:24;;;;;;;29.10;17.08;;;;;;;;;;5054448;28;20053;-68
2022/11/30 13:59:09;;;;;;;31.58;17.95;;;;;;;;;;5053776;28;20053;-67
2022/11/30 14:01:36;;;;;;;28.85;16.90;;;;;;;;;;5054672;28;20496;-67
2022/11/30 14:04:21;;;;;;;36.08;17.50;;;;;;;;;;5054355;28;20052;-67
2022/11/30 14:06:49;;;;;;;30.85;17.92;;;;;;;;;;5054337;28;20560;-67
2022/11/30 14:09:35;;;;;;;28.73;17.08;;;;;;;;;;5054227;28;20092;-67
2022/11/30 14:12:20;;;;;;;33.13;17.63;;;;;;;;;;5054071;28;20167;-67
2022/11/30 14:14:47;;;;;;;30.45;16.75;;;;;;;;;;5054153;28;20041;-67
2022/11/30 14:17:15;;;;;;;29.38;17.38;;;;;;;;;;5045747;28;20084;-67
2022/11/30 14:19:43;;;;;;;29.83;17.20;;;;;;;;;;5046165;28;20056;-67
2022/11/30 14:22:10;;;;;;;31.70;17.98;;;;;;;;;;5038733;28;20057;-67
2022/11/30 14:24:36;;;;;;;30.05;17.83;;;;;;;;;;5046268;28;20138;-67
2022/11/30 14:27:03;;;;;;;29.67;17.95;;;;;;;;;;5047279;28;20048;-68
2022/11/30 14:29:34;;;;;;;30.88;17.55;;;;;;;;;;5053520;28;20128;-67
2022/11/30 14:32:06;;;;;;;28.88;17.92;;;;;;;;;;5053505;28;20076;-67